createdAt,value
2023-03-05T00:01:47.567Z,96.17
2023-03-05T00:04:15.422Z,97.18
2023-03-05T00:06:42.002Z,96.40
2023-03-05T00:09:08.438Z,96.12
2023-03-05T00:11:34.905Z,95.87
2023-03-05T00:14:04.032Z,95.26
2023-03-05T00:16:31.513Z,94.82
2023-03-05T00:18:59.681Z,95.36
2023-03-05T00:21:27.570Z,95.58
2023-03-05T00:23:55.335Z,95.14
2023-03-05T00:26:25.380Z,96.07
2023-03-05T00:28:52.714Z,96.34
2023-03-05T00:31:25.136Z,96.33
2023-03-05T00:33:56.302Z,96.41
2023-03-05T00:36:24.365Z,96.18
2023-03-05T00:38:50.962Z,95.99
2023-03-05T00:41:17.489Z,96.13
2023-03-05T00:43:45.190Z,96.17
2023-03-05T00:46:11.933Z,96.13
2023-03-05T00:48:38.331Z,96.48
2023-03-05T00:51:05.024Z,96.76
2023-03-05T00:53:31.768Z,96.72
2023-03-05T00:55:59.190Z,97.80
2023-03-05T00:58:25.858Z,97.98
2023-03-05T01:00:52.313Z,98.03
2023-03-05T01:03:19.461Z,98.58
2023-03-05T01:05:46.053Z,98.60
2023-03-05T01:08:12.583Z,98.88
2023-03-05T01:10:39.060Z,98.41
2023-03-05T01:13:05.494Z,97.75
2023-03-05T01:15:31.887Z,98.38
2023-03-05T01:17:58.322Z,98.85
2023-03-05T01:20:24.757Z,98.35
2023-03-05T01:22:51.286Z,98.41
2023-03-05T01:25:18.377Z,98.66
2023-03-05T01:27:45.048Z,98.03
2023-03-05T01:30:14.056Z,97.37
2023-03-05T01:32:40.518Z,98.42
2023-03-05T01:35:07.877Z,97.65
2023-03-05T01:37:34.534Z,97.27
2023-03-05T01:40:00.905Z,97.60
2023-03-05T01:42:27.405Z,96.44
2023-03-05T01:45:20.173Z,96.55
2023-03-05T01:47:46.625Z,95.99
2023-03-05T01:50:18.231Z,96.72
2023-03-05T01:52:52.927Z,94.94
2023-03-05T01:55:25.816Z,96.03
2023-03-05T01:58:04.842Z,96.38
2023-03-05T02:00:35.480Z,95.96
2023-03-05T02:03:07.088Z,96.92
2023-03-05T02:05:36.139Z,96.05
2023-03-05T02:08:05.965Z,94.66
2023-03-05T02:10:39.019Z,95.21
2023-03-05T02:13:09.785Z,94.84
2023-03-05T02:15:37.853Z,94.93
2023-03-05T02:18:04.904Z,95.05
2023-03-05T02:20:53.836Z,95.66
2023-03-05T02:23:22.287Z,95.15
2023-03-05T02:25:48.922Z,95.26
2023-03-05T02:28:22.957Z,96.05
2023-03-05T02:30:49.421Z,95.07
2023-03-05T02:33:17.259Z,95.88
2023-03-05T02:35:44.397Z,95.62
2023-03-05T02:38:11.467Z,95.61
2023-03-05T02:40:37.854Z,94.78
2023-03-05T02:43:04.752Z,94.87
2023-03-05T02:45:31.218Z,94.18
2023-03-05T02:47:57.623Z,94.65
2023-03-05T02:50:26.071Z,93.64
2023-03-05T02:52:53.383Z,94.52
2023-03-05T02:55:20.035Z,93.47
2023-03-05T02:57:46.430Z,94.74
2023-03-05T03:00:13.409Z,94.04
2023-03-05T03:02:39.829Z,94.21
2023-03-05T03:05:06.671Z,94.42
2023-03-05T03:07:34.398Z,94.57
2023-03-05T03:10:00.735Z,95.22
2023-03-05T03:12:27.242Z,94.86
2023-03-05T03:14:53.632Z,95.44
2023-03-05T03:17:20.086Z,95.74
2023-03-05T03:19:46.947Z,94.71
2023-03-05T03:22:15.184Z,95.12
2023-03-05T03:24:42.745Z,95.00
2023-03-05T03:27:09.607Z,96.18
2023-03-05T03:29:36.934Z,96.16
2023-03-05T03:32:04.664Z,95.80
2023-03-05T03:34:31.171Z,95.19
2023-03-05T03:36:57.594Z,95.23
2023-03-05T03:39:25.419Z,95.67
2023-03-05T03:41:53.434Z,95.78
2023-03-05T03:44:21.097Z,95.77
2023-03-05T03:46:48.515Z,96.23
2023-03-05T03:49:20.815Z,96.85
2023-03-05T03:51:48.847Z,95.90
2023-03-05T03:54:16.115Z,94.79
2023-03-05T03:56:42.811Z,95.04
2023-03-05T03:59:09.581Z,95.00
2023-03-05T04:01:36.518Z,95.51
2023-03-05T04:04:04.117Z,95.55
2023-03-05T04:06:31.607Z,94.95
2023-03-05T04:08:58.156Z,95.60
2023-03-05T04:11:24.994Z,94.46
2023-03-05T04:13:51.416Z,94.87
2023-03-05T04:16:17.958Z,94.80
2023-03-05T04:18:44.373Z,95.44
2023-03-05T04:21:11.607Z,94.65
2023-03-05T04:23:38.300Z,94.23
2023-03-05T04:26:05.455Z,94.62
2023-03-05T04:28:32.499Z,94.37
2023-03-05T04:30:58.924Z,93.98
2023-03-05T04:33:25.338Z,93.95
2023-03-05T04:35:52.331Z,94.23
2023-03-05T04:38:19.108Z,92.63
2023-03-05T04:40:46.663Z,94.03
2023-03-05T04:43:13.084Z,92.65
2023-03-05T04:45:40.541Z,93.18
2023-03-05T04:48:07.192Z,92.76
2023-03-05T04:50:33.807Z,92.61
2023-03-05T04:53:00.672Z,91.74
2023-03-05T04:55:27.192Z,92.53
2023-03-05T04:57:53.698Z,91.96
2023-03-05T05:00:20.478Z,92.44
2023-03-05T05:02:49.872Z,92.25
2023-03-05T05:05:19.196Z,92.04
2023-03-05T05:07:45.561Z,92.83
2023-03-05T05:10:13.112Z,92.73
2023-03-05T05:12:39.696Z,91.21
2023-03-05T05:15:07.576Z,92.65
2023-03-05T05:17:34.625Z,92.00
2023-03-05T05:20:01.573Z,91.79
2023-03-05T05:22:29.165Z,92.01
2023-03-05T05:24:56.564Z,91.63
2023-03-05T05:27:23.290Z,92.10
2023-03-05T05:29:52.948Z,92.37
2023-03-05T05:32:21.254Z,91.94
2023-03-05T05:34:48.569Z,91.89
2023-03-05T05:37:15.228Z,91.88
2023-03-05T05:39:41.623Z,92.17
2023-03-05T05:42:08.187Z,92.52
2023-03-05T05:44:34.933Z,93.11
2023-03-05T05:47:01.794Z,92.99
2023-03-05T05:49:28.235Z,92.07
2023-03-05T05:51:54.705Z,92.05
2023-03-05T05:54:21.093Z,92.91
2023-03-05T05:56:47.486Z,92.14
2023-03-05T05:59:13.858Z,92.48
2023-03-05T06:01:40.413Z,92.07
2023-03-05T06:04:06.967Z,92.31
2023-03-05T06:06:34.861Z,93.71
2023-03-05T06:09:01.307Z,92.65
2023-03-05T06:11:27.818Z,92.50
2023-03-05T06:13:54.711Z,93.34
2023-03-05T06:16:24.296Z,93.60
2023-03-05T06:18:52.221Z,93.08
2023-03-05T06:21:21.524Z,93.12
2023-03-05T06:23:48.863Z,92.39
2023-03-05T06:26:19.439Z,92.19
2023-03-05T06:28:46.154Z,92.97
2023-03-05T06:31:18.789Z,92.46
2023-03-05T06:33:45.596Z,92.17
2023-03-05T06:36:15.290Z,91.55
2023-03-05T06:38:41.993Z,92.17
2023-03-05T06:41:14.349Z,92.88
2023-03-05T06:43:43.113Z,92.83
2023-03-05T06:46:15.552Z,93.68
2023-03-05T06:48:43.201Z,93.33
2023-03-05T06:51:17.327Z,92.47
2023-03-05T06:53:44.904Z,92.29
2023-03-05T06:56:13.837Z,91.75
2023-03-05T06:58:40.987Z,92.19
2023-03-05T07:01:07.849Z,92.69
2023-03-05T07:03:35.917Z,92.19
2023-03-05T07:06:07.760Z,92.48
2023-03-05T07:08:34.487Z,91.79
2023-03-05T07:11:01.486Z,92.10
2023-03-05T07:13:29.070Z,90.68
2023-03-05T07:15:55.725Z,91.50
2023-03-05T07:18:22.292Z,92.09
2023-03-05T07:20:48.697Z,91.22
2023-03-05T07:23:15.086Z,88.08
2023-03-05T07:25:41.410Z,87.34
2023-03-05T07:28:07.962Z,87.19
2023-03-05T07:30:34.635Z,87.02
2023-03-05T07:33:02.069Z,86.21
2023-03-05T07:35:28.479Z,86.54
2023-03-05T07:37:55.789Z,86.84
2023-03-05T07:40:22.434Z,86.35
2023-03-05T07:42:48.839Z,85.60
2023-03-05T07:45:15.208Z,85.67
2023-03-05T07:47:41.577Z,85.30
2023-03-05T07:50:08.744Z,84.59
2023-03-05T07:52:35.171Z,85.15
2023-03-05T07:55:01.588Z,85.11
2023-03-05T07:57:28.037Z,85.15
2023-03-05T07:59:54.734Z,84.46
2023-03-05T08:02:21.635Z,84.61
2023-03-05T08:04:48.094Z,85.17
2023-03-05T08:07:16.076Z,84.96
2023-03-05T08:09:42.884Z,84.29
2023-03-05T08:12:10.328Z,82.59
2023-03-05T08:14:37.005Z,82.41
2023-03-05T08:17:05.094Z,82.62
2023-03-05T08:19:32.496Z,80.63
2023-03-05T08:21:58.919Z,79.33
2023-03-05T08:24:29.489Z,81.00
2023-03-05T08:26:57.444Z,81.35
2023-03-05T08:29:24.503Z,81.08
2023-03-05T08:31:53.473Z,80.51
2023-03-05T08:34:21.045Z,80.19
2023-03-05T08:36:48.024Z,80.52
2023-03-05T08:39:14.917Z,78.15
2023-03-05T08:41:41.350Z,78.42
2023-03-05T08:44:07.825Z,79.73
2023-03-05T08:46:34.874Z,78.90
2023-03-05T08:49:01.336Z,78.63
2023-03-05T08:51:27.835Z,78.50
2023-03-05T08:53:56.101Z,78.73
2023-03-05T08:56:22.541Z,78.58
2023-03-05T08:58:49.317Z,77.30
2023-03-05T09:01:15.820Z,76.78
2023-03-05T09:03:42.349Z,72.33
2023-03-05T09:06:10.443Z,71.64
2023-03-05T09:08:36.913Z,69.99
2023-03-05T09:11:06.066Z,71.21
2023-03-05T09:13:33.341Z,70.03
2023-03-05T09:16:04.976Z,69.71
2023-03-05T09:18:31.503Z,70.69
2023-03-05T09:20:58.700Z,69.01
2023-03-05T09:23:25.126Z,70.39
2023-03-05T09:25:51.647Z,69.72
2023-03-05T09:28:18.114Z,68.25
2023-03-05T09:30:44.533Z,67.89
2023-03-05T09:33:11.171Z,69.90
2023-03-05T09:35:37.671Z,69.77
2023-03-05T09:38:04.742Z,68.84
2023-03-05T09:40:45.944Z,69.78
2023-03-05T09:43:29.973Z,69.34
2023-03-05T09:46:13.706Z,70.37
2023-03-05T09:48:58.467Z,69.58
2023-03-05T09:51:30.899Z,69.07
2023-03-05T09:54:12.157Z,69.22
2023-03-05T09:56:45.171Z,68.00
2023-03-05T09:59:25.879Z,69.70
2023-03-05T10:01:53.552Z,69.92
2023-03-05T10:04:44.032Z,70.88
2023-03-05T10:07:25.711Z,68.72
2023-03-05T10:09:59.550Z,70.13
2023-03-05T10:12:48.510Z,69.51
2023-03-05T10:15:16.512Z,69.89
2023-03-05T10:18:10.402Z,70.15
2023-03-05T10:20:59.325Z,68.83
2023-03-05T10:23:29.456Z,69.34
2023-03-05T10:26:20.192Z,68.39
2023-03-05T10:29:03.354Z,69.69
2023-03-05T10:31:29.699Z,69.53
2023-03-05T10:34:21.201Z,69.51
2023-03-05T10:37:06.435Z,68.98
2023-03-05T10:39:57.507Z,72.59
2023-03-05T10:42:32.803Z,74.30
2023-03-05T10:45:01.323Z,75.77
2023-03-05T10:47:55.452Z,77.17
2023-03-05T10:50:33.414Z,80.40
2023-03-05T10:53:27.725Z,83.75
2023-03-05T10:55:56.520Z,85.00
2023-03-05T10:58:24.845Z,84.99
2023-03-05T11:01:09.955Z,84.23
2023-03-05T11:03:53.967Z,85.56
2023-03-05T11:06:35.000Z,86.18
2023-03-05T11:09:19.930Z,86.11
2023-03-05T11:12:12.438Z,87.02
2023-03-05T11:14:42.347Z,85.21
2023-03-05T11:17:27.498Z,86.11
2023-03-05T11:19:55.186Z,85.82
2023-03-05T11:22:24.021Z,86.43
2023-03-05T11:25:18.922Z,85.48
2023-03-05T11:27:55.635Z,85.55
2023-03-05T11:30:28.879Z,85.71
2023-03-05T11:33:14.300Z,84.75
2023-03-05T11:35:43.686Z,84.37
2023-03-05T11:38:24.479Z,84.53
2023-03-05T11:40:53.409Z,84.35
2023-03-05T11:43:23.418Z,83.80
2023-03-05T11:45:53.811Z,83.19
2023-03-05T11:48:28.583Z,83.04
2023-03-05T11:50:59.017Z,82.41
2023-03-05T11:53:29.425Z,81.86
2023-03-05T11:56:11.562Z,80.80
2023-03-05T11:58:46.450Z,81.43
2023-03-05T12:01:17.886Z,80.88
2023-03-05T12:03:44.846Z,80.86
2023-03-05T12:06:17.675Z,79.80
2023-03-05T12:08:52.275Z,80.36
2023-03-05T12:11:28.211Z,78.43
2023-03-05T12:13:58.999Z,77.99
2023-03-05T12:16:32.941Z,76.33
2023-03-05T12:19:30.605Z,76.03
2023-03-05T12:21:57.789Z,75.06
2023-03-05T12:24:26.693Z,74.51
2023-03-05T12:27:06.815Z,73.01
2023-03-05T12:29:33.220Z,74.70
2023-03-05T12:32:01.077Z,74.20
2023-03-05T12:34:40.391Z,72.86
2023-03-05T12:37:34.038Z,72.03
2023-03-05T12:40:08.523Z,72.91
2023-03-05T12:42:35.458Z,73.80
2023-03-05T12:45:15.745Z,74.51
2023-03-05T12:47:43.849Z,74.58
2023-03-05T12:50:28.337Z,73.19
2023-03-05T12:53:06.917Z,74.48
2023-03-05T12:55:48.294Z,73.99
2023-03-05T12:58:24.441Z,75.27
2023-03-05T13:01:02.825Z,74.89
2023-03-05T13:03:33.977Z,74.68
2023-03-05T13:06:00.902Z,73.67
2023-03-05T13:08:32.435Z,73.31
2023-03-05T13:11:16.677Z,72.85
2023-03-05T13:13:44.565Z,73.31
2023-03-05T13:16:26.464Z,72.61
2023-03-05T13:18:54.310Z,73.41
2023-03-05T13:21:29.619Z,74.12
2023-03-05T13:24:01.260Z,73.02
2023-03-05T13:26:28.486Z,73.21
2023-03-05T13:29:03.810Z,73.60
2023-03-05T13:31:30.737Z,72.90
2023-03-05T13:34:11.417Z,72.55
2023-03-05T13:36:39.606Z,72.26
2023-03-05T13:39:07.453Z,72.23
2023-03-05T13:41:33.805Z,72.07
2023-03-05T13:44:02.492Z,71.48
2023-03-05T13:46:40.273Z,70.12
2023-03-05T13:49:23.567Z,69.55
2023-03-05T13:51:55.638Z,69.08
2023-03-05T13:54:24.900Z,68.06
2023-03-05T13:57:05.430Z,69.15
2023-03-05T13:59:34.413Z,70.20
2023-03-05T14:02:14.904Z,69.32
2023-03-05T14:04:43.750Z,68.15
2023-03-05T14:07:26.748Z,66.98
2023-03-05T14:09:53.578Z,67.35
2023-03-05T14:12:22.691Z,66.52
2023-03-05T14:14:49.314Z,66.92
2023-03-05T14:17:27.546Z,67.50
2023-03-05T14:20:29.937Z,67.14
2023-03-05T14:22:58.898Z,67.12
2023-03-05T14:25:51.763Z,66.90
2023-03-05T14:28:18.117Z,66.63
2023-03-05T14:30:50.413Z,66.09
2023-03-05T14:33:43.810Z,66.07
2023-03-05T14:36:11.299Z,65.35
2023-03-05T14:38:42.806Z,64.18
2023-03-05T14:41:20.665Z,63.31
2023-03-05T14:43:47.090Z,64.53
2023-03-05T14:46:13.787Z,64.72
2023-03-05T14:48:40.221Z,63.38
2023-03-05T14:51:07.666Z,63.74
2023-03-05T14:53:47.429Z,62.50
2023-03-05T14:56:22.195Z,64.88
2023-03-05T14:58:48.646Z,64.22
2023-03-05T15:01:15.162Z,64.08
2023-03-05T15:03:41.710Z,63.97
2023-03-05T15:06:18.782Z,62.02
2023-03-05T15:08:45.437Z,63.20
2023-03-05T15:11:12.043Z,64.04
2023-03-05T15:13:38.561Z,63.78
2023-03-05T15:16:06.781Z,63.57
2023-03-05T15:18:33.246Z,64.54
2023-03-05T15:20:59.675Z,64.31
2023-03-05T15:23:26.382Z,63.32
2023-03-05T15:25:52.801Z,64.70
2023-03-05T15:28:19.251Z,64.21
2023-03-05T15:30:47.203Z,64.07
2023-03-05T15:33:16.870Z,64.26
2023-03-05T15:35:43.874Z,64.71
2023-03-05T15:38:10.408Z,65.31
2023-03-05T15:40:37.009Z,65.48
2023-03-05T15:43:03.485Z,65.95
2023-03-05T15:45:31.311Z,66.25
2023-03-05T15:47:57.998Z,67.09
2023-03-05T15:50:24.388Z,67.49
2023-03-05T15:52:50.875Z,66.44
2023-03-05T15:55:18.430Z,67.73
2023-03-05T15:57:50.549Z,66.94
2023-03-05T16:00:21.446Z,68.17
2023-03-05T16:02:49.010Z,67.96
2023-03-05T16:05:15.590Z,67.37
2023-03-05T16:07:44.168Z,67.85
2023-03-05T16:10:17.263Z,67.79
2023-03-05T16:12:46.810Z,66.73
2023-03-05T16:15:20.938Z,67.72
2023-03-05T16:17:52.293Z,67.13
2023-03-05T16:20:19.546Z,66.78
2023-03-05T16:22:46.461Z,66.33
2023-03-05T16:25:13.030Z,67.04
2023-03-05T16:27:39.450Z,67.95
2023-03-05T16:30:07.018Z,68.75
2023-03-05T16:32:33.627Z,68.93
2023-03-05T16:35:00.047Z,69.67
2023-03-05T16:37:26.544Z,70.40
2023-03-05T16:39:52.943Z,69.07
2023-03-05T16:42:19.388Z,68.76
2023-03-05T16:44:47.350Z,69.00
2023-03-05T16:47:13.846Z,68.92
2023-03-05T16:49:40.887Z,70.42
2023-03-05T16:52:18.257Z,71.11
2023-03-05T16:54:45.389Z,69.67
2023-03-05T16:57:11.861Z,70.95
2023-03-05T16:59:38.259Z,69.45
2023-03-05T17:02:05.124Z,69.29
2023-03-05T17:04:31.555Z,71.04
2023-03-05T17:06:57.942Z,71.82
2023-03-05T17:09:24.596Z,71.05
2023-03-05T17:11:52.182Z,70.83
2023-03-05T17:14:18.755Z,71.89
2023-03-05T17:16:45.390Z,71.66
2023-03-05T17:19:12.160Z,72.04
2023-03-05T17:21:41.993Z,72.81
2023-03-05T17:24:09.902Z,72.70
2023-03-05T17:26:37.064Z,72.10
2023-03-05T17:29:07.290Z,72.78
2023-03-05T17:31:33.868Z,73.91
2023-03-05T17:34:00.436Z,73.91
2023-03-05T17:36:26.884Z,74.72
2023-03-05T17:38:53.911Z,75.55
2023-03-05T17:41:21.022Z,75.85
2023-03-05T17:43:47.549Z,76.03
2023-03-05T17:46:14.630Z,75.79
2023-03-05T17:48:41.659Z,76.05
2023-03-05T17:51:11.401Z,77.32
2023-03-05T17:53:39.321Z,76.94
2023-03-05T17:56:08.138Z,77.13
2023-03-05T17:58:34.637Z,75.96
2023-03-05T18:01:01.241Z,76.52
2023-03-05T18:03:27.736Z,76.11
2023-03-05T18:05:54.258Z,76.28
2023-03-05T18:08:20.669Z,76.24
2023-03-05T18:10:47.034Z,76.18
2023-03-05T18:13:13.486Z,76.71
2023-03-05T18:15:47.264Z,76.41
2023-03-05T18:18:15.364Z,77.09
2023-03-05T18:20:41.800Z,77.73
2023-03-05T18:23:08.273Z,78.28
2023-03-05T18:25:34.817Z,77.89
2023-03-05T18:28:03.784Z,78.17
2023-03-05T18:30:31.385Z,79.18
2023-03-05T18:32:58.353Z,79.65
2023-03-05T18:35:24.851Z,79.60
2023-03-05T18:37:51.817Z,78.61
2023-03-05T18:40:21.712Z,79.04
2023-03-05T18:42:48.612Z,77.55
2023-03-05T18:45:17.560Z,78.29
2023-03-05T18:47:48.966Z,78.87
2023-03-05T18:50:18.425Z,80.56
2023-03-05T18:52:45.298Z,79.97
2023-03-05T18:55:19.166Z,78.86
2023-03-05T18:57:46.041Z,79.22
2023-03-05T19:00:15.432Z,78.99
2023-03-05T19:02:41.844Z,79.03
2023-03-05T19:05:08.756Z,79.49
2023-03-05T19:07:35.348Z,80.09
2023-03-05T19:10:07.356Z,79.55
2023-03-05T19:12:45.405Z,80.54
2023-03-05T19:15:13.132Z,80.46
2023-03-05T19:17:40.046Z,82.07
2023-03-05T19:20:08.041Z,81.39
2023-03-05T19:22:34.628Z,82.49
2023-03-05T19:25:01.673Z,82.07
2023-03-05T19:27:28.571Z,82.55
2023-03-05T19:29:55.178Z,82.37
2023-03-05T19:32:22.022Z,81.22
2023-03-05T19:34:48.906Z,81.37
2023-03-05T19:37:16.238Z,82.08
2023-03-05T19:39:42.650Z,81.80
2023-03-05T19:42:09.550Z,82.40
2023-03-05T19:44:36.063Z,81.83
2023-03-05T19:47:02.620Z,80.71
2023-03-05T19:49:29.611Z,82.00
2023-03-05T19:51:56.047Z,81.65
2023-03-05T19:54:23.214Z,82.09
2023-03-05T19:56:52.904Z,83.31
2023-03-05T19:59:21.134Z,82.78
2023-03-05T20:01:48.874Z,82.63
2023-03-05T20:04:18.644Z,83.57
2023-03-05T20:06:45.535Z,82.76
2023-03-05T20:09:12.665Z,82.07
2023-03-05T20:11:39.789Z,82.74
2023-03-05T20:14:06.885Z,83.05
2023-03-05T20:16:36.208Z,82.40
2023-03-05T20:19:03.440Z,83.33
2023-03-05T20:21:39.103Z,82.81
2023-03-05T20:24:09.796Z,81.40
2023-03-05T20:26:37.966Z,81.93
2023-03-05T20:29:05.011Z,82.77
2023-03-05T20:31:33.817Z,82.81
2023-03-05T20:34:00.287Z,83.22
2023-03-05T20:36:26.803Z,84.01
2023-03-05T20:38:53.220Z,84.16
2023-03-05T20:41:23.220Z,83.64
2023-03-05T20:43:51.151Z,84.60
2023-03-05T20:46:23.396Z,84.32
2023-03-05T20:48:51.939Z,85.22
2023-03-05T20:51:24.400Z,85.73
2023-03-05T20:53:54.119Z,86.16
2023-03-05T20:56:20.595Z,86.27
2023-03-05T20:58:47.018Z,86.44
2023-03-05T21:01:13.679Z,86.33
2023-03-05T21:03:40.906Z,86.19
2023-03-05T21:06:07.985Z,86.84
2023-03-05T21:08:34.473Z,85.72
2023-03-05T21:11:05.294Z,85.87
2023-03-05T21:13:31.691Z,86.64
2023-03-05T21:15:58.073Z,85.32
2023-03-05T21:18:24.550Z,85.34
2023-03-05T21:20:50.968Z,85.37
2023-03-05T21:23:17.480Z,85.97
2023-03-05T21:25:43.864Z,85.07
2023-03-05T21:28:16.425Z,84.16
2023-03-05T21:30:45.422Z,83.71
2023-03-05T21:33:15.196Z,83.19
2023-03-05T21:35:41.996Z,82.10
2023-03-05T21:38:09.571Z,82.27
2023-03-05T21:40:39.918Z,83.82
2023-03-05T21:43:06.282Z,84.90
2023-03-05T21:45:32.832Z,84.83
2023-03-05T21:47:59.735Z,85.91
2023-03-05T21:50:26.445Z,85.49
2023-03-05T21:52:53.178Z,85.11
2023-03-05T21:55:32.287Z,84.71
2023-03-05T21:58:02.487Z,85.14
2023-03-05T22:00:29.143Z,85.04
2023-03-05T22:02:55.505Z,85.24
2023-03-05T22:05:22.058Z,84.78
2023-03-05T22:07:48.501Z,84.96
2023-03-05T22:10:17.589Z,86.26
2023-03-05T22:13:11.581Z,86.09
2023-03-05T22:15:52.605Z,86.27
2023-03-05T22:18:21.576Z,86.32
2023-03-05T22:20:48.187Z,86.22
2023-03-05T22:23:16.066Z,86.46
2023-03-05T22:25:43.244Z,86.29
2023-03-05T22:28:13.131Z,86.19
2023-03-05T22:30:44.265Z,86.29
2023-03-05T22:33:11.155Z,85.65
2023-03-05T22:35:40.207Z,84.66
2023-03-05T22:38:07.878Z,83.68
2023-03-05T22:40:34.603Z,84.22
2023-03-05T22:43:00.958Z,84.90
2023-03-05T22:45:28.568Z,85.13
2023-03-05T22:47:54.972Z,85.59
2023-03-05T22:50:21.433Z,84.06
2023-03-05T22:52:47.877Z,84.87
2023-03-05T22:55:15.972Z,84.65
2023-03-05T22:57:43.440Z,85.80
2023-03-05T23:00:14.365Z,85.52
2023-03-05T23:02:42.202Z,85.67
2023-03-05T23:05:10.004Z,86.25
2023-03-05T23:07:38.582Z,85.76
2023-03-05T23:10:15.175Z,86.77
2023-03-05T23:12:46.040Z,86.77
2023-03-05T23:15:14.680Z,85.07
2023-03-05T23:17:41.236Z,83.41
2023-03-05T23:20:10.104Z,84.29
2023-03-05T23:22:38.336Z,82.92
2023-03-05T23:25:05.343Z,81.17
2023-03-05T23:27:31.752Z,81.39
2023-03-05T23:30:16.572Z,81.81
2023-03-05T23:32:45.153Z,81.03
2023-03-05T23:35:13.408Z,80.99
2023-03-05T23:37:39.955Z,82.58
2023-03-05T23:40:07.769Z,83.46
2023-03-05T23:42:34.258Z,84.37
2023-03-05T23:45:00.624Z,85.00
2023-03-05T23:47:26.999Z,85.30
2023-03-05T23:49:53.566Z,86.20
2023-03-05T23:52:19.960Z,85.73
2023-03-05T23:54:46.392Z,85.94
2023-03-05T23:57:12.766Z,85.70
2023-03-05T23:59:39.291Z,86.65
